createdAt,value
2018-12-01T00:00:43.915Z,95.73
2018-12-01T00:03:13.725Z,91.77
2018-12-01T00:05:58.509Z,92.50
2018-12-01T00:08:28.333Z,88.30
2018-12-01T00:10:58.028Z,91.30
2018-12-01T00:13:27.777Z,92.97
2018-12-01T00:15:57.588Z,91.07
2018-12-01T00:18:27.402Z,90.67
2018-12-01T00:20:57.301Z,89.07
2018-12-01T00:23:26.932Z,85.00
2018-12-01T00:25:56.562Z,85.80
2018-12-01T00:28:26.546Z,84.40
2018-12-01T00:30:56.246Z,80.87
2018-12-01T00:33:26.053Z,82.83
2018-12-01T00:35:55.738Z,81.17
2018-12-01T00:38:25.537Z,84.40
2018-12-01T00:40:55.225Z,81.10
2018-12-01T00:43:24.963Z,80.27
2018-12-01T00:45:54.713Z,78.43
2018-12-01T00:48:24.483Z,78.23
2018-12-01T00:50:54.333Z,80.47
2018-12-01T00:53:24.102Z,76.00
2018-12-01T00:55:53.963Z,77.77
2018-12-01T00:58:23.769Z,78.00
2018-12-01T01:00:53.528Z,76.90
2018-12-01T01:03:23.391Z,74.23
2018-12-01T01:05:53.202Z,75.70
2018-12-01T01:08:22.983Z,71.07
2018-12-01T01:10:52.830Z,69.50
2018-12-01T01:13:22.540Z,70.93
2018-12-01T01:15:52.351Z,69.73
2018-12-01T01:18:21.858Z,71.67
2018-12-01T01:20:51.663Z,70.03
2018-12-01T01:23:21.471Z,67.97
2018-12-01T01:25:51.241Z,68.03
2018-12-01T01:28:21.020Z,64.83
2018-12-01T01:30:50.802Z,65.67
2018-12-01T01:33:31.497Z,65.50
2018-12-01T01:36:01.568Z,64.37
2018-12-01T01:38:31.479Z,66.53
2018-12-01T01:41:06.172Z,64.40
2018-12-01T01:43:36.517Z,61.40
2018-12-01T01:46:06.331Z,63.27
2018-12-01T01:48:37.057Z,61.77
2018-12-01T01:51:07.119Z,64.23
2018-12-01T01:53:36.869Z,59.77
2018-12-01T01:56:06.817Z,61.43
2018-12-01T01:58:36.565Z,62.67
2018-12-01T02:01:06.642Z,59.67
2018-12-01T02:03:36.387Z,60.97
2018-12-01T02:06:06.505Z,59.43
2018-12-01T02:08:36.425Z,59.93
2018-12-01T02:11:06.510Z,58.97
2018-12-01T02:13:36.219Z,57.33
2018-12-01T02:16:06.058Z,59.97
2018-12-01T02:18:35.757Z,57.07
2018-12-01T02:21:06.398Z,55.83
2018-12-01T02:23:36.100Z,55.80
2018-12-01T02:26:05.995Z,57.43
2018-12-01T02:28:35.791Z,56.77
2018-12-01T02:31:05.679Z,53.27
2018-12-01T02:33:35.306Z,55.00
2018-12-01T02:36:04.992Z,55.20
2018-12-01T02:38:34.774Z,54.40
2018-12-01T02:41:04.687Z,54.43
2018-12-01T02:43:34.501Z,53.13
2018-12-01T02:47:12.715Z,52.67
2018-12-01T02:49:42.558Z,51.17
2018-12-01T02:52:12.273Z,51.20
2018-12-01T02:54:41.981Z,51.03
2018-12-01T02:57:11.620Z,49.13
2018-12-01T02:59:41.404Z,50.53
2018-12-01T03:02:11.176Z,48.10
2018-12-01T03:04:41.089Z,48.80
2018-12-01T03:07:10.901Z,49.87
2018-12-01T03:09:40.619Z,47.40
2018-12-01T03:12:10.417Z,48.33
2018-12-01T03:14:40.237Z,47.30
2018-12-01T03:17:10.072Z,46.70
2018-12-01T03:19:39.845Z,46.63
2018-12-01T03:22:09.668Z,46.17
2018-12-01T03:24:39.481Z,46.93
2018-12-01T03:27:09.338Z,47.10
2018-12-01T03:29:39.389Z,45.67
2018-12-01T03:32:09.046Z,46.43
2018-12-01T03:34:38.866Z,45.10
2018-12-01T03:37:08.577Z,45.73
2018-12-01T03:39:38.289Z,45.70
2018-12-01T03:42:08.093Z,43.50
2018-12-01T03:44:37.803Z,44.60
2018-12-01T03:47:07.510Z,42.43
2018-12-01T03:49:37.289Z,42.53
2018-12-01T03:52:07.187Z,43.87
2018-12-01T03:54:36.983Z,41.87
2018-12-01T03:57:06.836Z,42.60
2018-12-01T03:59:36.576Z,41.77
2018-12-01T04:02:06.588Z,42.33
2018-12-01T04:04:36.307Z,41.50
2018-12-01T04:07:06.341Z,42.73
2018-12-01T04:09:36.093Z,42.70
2018-12-01T04:12:06.004Z,42.17
2018-12-01T04:14:35.645Z,38.67
2018-12-01T04:17:05.649Z,42.87
2018-12-01T04:19:36.014Z,41.80
2018-12-01T04:22:05.957Z,40.17
2018-12-01T04:24:35.781Z,39.13
2018-12-01T04:27:05.672Z,40.20
2018-12-01T04:29:35.399Z,38.10
2018-12-01T04:32:05.214Z,38.87
2018-12-01T04:34:35.530Z,40.03
2018-12-01T04:37:05.360Z,37.80
2018-12-01T04:39:35.002Z,37.00
2018-12-01T04:42:04.596Z,37.57
2018-12-01T04:44:34.302Z,37.83
2018-12-01T04:47:04.056Z,38.63
2018-12-01T04:49:33.872Z,36.17
2018-12-01T04:52:03.710Z,37.53
2018-12-01T04:54:33.488Z,37.03
2018-12-01T04:57:03.330Z,39.00
2018-12-01T04:59:33.120Z,36.53
2018-12-01T05:02:03.012Z,37.83
2018-12-01T05:04:32.876Z,35.30
2018-12-01T05:07:02.671Z,35.47
2018-12-01T05:09:32.454Z,33.63
2018-12-01T05:12:02.469Z,34.73
2018-12-01T05:14:32.244Z,34.97
2018-12-01T05:17:02.093Z,34.27
2018-12-01T05:19:31.878Z,34.30
2018-12-01T05:22:01.650Z,34.23
2018-12-01T05:24:31.393Z,33.57
2018-12-01T05:27:01.345Z,35.70
2018-12-01T05:29:31.186Z,33.33
2018-12-01T05:32:00.997Z,33.77
2018-12-01T05:34:30.742Z,33.87
2018-12-01T05:37:00.475Z,32.47
2018-12-01T05:39:30.260Z,32.30
2018-12-01T05:42:00.038Z,33.47
2018-12-01T05:44:29.773Z,32.67
2018-12-01T05:46:59.556Z,46.40
2018-12-01T05:49:29.369Z,59.07
2018-12-01T05:51:59.154Z,88.50
2018-12-01T05:54:28.897Z,99.77
2018-12-01T05:56:58.695Z,108.50
2018-12-01T05:59:28.484Z,112.50
2018-12-01T06:01:58.381Z,144.43
2018-12-01T06:04:28.203Z,86.30
2018-12-01T06:06:58.509Z,123.37
2018-12-01T06:09:28.377Z,140.23
2018-12-01T06:11:58.093Z,123.63
2018-12-01T06:14:27.885Z,125.57
2018-12-01T06:16:57.545Z,98.77
2018-12-01T06:19:27.476Z,105.87
2018-12-01T06:21:57.197Z,88.80
2018-12-01T06:24:27.023Z,104.07
2018-12-01T06:26:57.553Z,106.60
2018-12-01T06:29:27.358Z,94.00
2018-12-01T06:31:57.109Z,94.30
2018-12-01T06:34:26.918Z,91.93
2018-12-01T06:36:56.721Z,98.60
2018-12-01T06:39:26.524Z,87.23
2018-12-01T06:41:56.220Z,88.83
2018-12-01T06:44:25.973Z,102.03
2018-12-01T06:46:55.845Z,91.80
2018-12-01T06:49:25.656Z,83.67
2018-12-01T06:51:55.630Z,88.17
2018-12-01T06:54:25.505Z,84.47
2018-12-01T06:56:55.265Z,98.37
2018-12-01T06:59:25.094Z,90.77
2018-12-01T07:01:54.881Z,90.30
2018-12-01T07:04:24.719Z,89.10
2018-12-01T07:06:54.510Z,90.97
2018-12-01T07:09:24.353Z,92.17
2018-12-01T07:11:54.134Z,86.57
2018-12-01T07:14:23.954Z,88.30
2018-12-01T07:16:53.946Z,85.10
2018-12-01T07:19:23.673Z,86.43
2018-12-01T07:21:53.478Z,82.83
2018-12-01T07:24:23.229Z,86.47
2018-12-01T07:26:53.585Z,82.60
2018-12-01T07:29:23.433Z,76.03
2018-12-01T07:31:53.267Z,77.87
2018-12-01T07:34:23.045Z,80.43
2018-12-01T07:36:52.942Z,79.13
2018-12-01T07:39:22.737Z,80.10
2018-12-01T07:41:52.473Z,79.40
2018-12-01T07:44:22.269Z,76.43
2018-12-01T07:46:52.067Z,79.17
2018-12-01T07:49:21.697Z,74.30
2018-12-01T07:51:51.488Z,73.97
2018-12-01T07:54:21.263Z,70.70
2018-12-01T07:56:51.080Z,71.87
2018-12-01T07:59:20.887Z,69.27
2018-12-01T08:01:50.700Z,71.57
2018-12-01T08:04:20.493Z,70.40
2018-12-01T08:06:50.293Z,69.33
2018-12-01T08:09:20.132Z,69.27
2018-12-01T08:11:49.906Z,68.00
2018-12-01T08:14:19.689Z,68.03
2018-12-01T08:16:49.570Z,66.67
2018-12-01T08:19:19.380Z,66.97
2018-12-01T08:21:49.159Z,65.17
2018-12-01T08:24:19.137Z,63.07
2018-12-01T08:26:48.842Z,65.07
2018-12-01T08:29:18.601Z,65.07
2018-12-01T08:31:48.361Z,62.93
2018-12-01T08:34:18.149Z,64.07
2018-12-01T08:36:47.756Z,62.50
2018-12-01T08:39:17.505Z,59.70
2018-12-01T08:41:47.209Z,62.10
2018-12-01T08:44:16.815Z,61.83
2018-12-01T08:46:46.517Z,62.40
2018-12-01T08:49:16.203Z,59.77
2018-12-01T08:51:45.972Z,60.70
2018-12-01T08:54:15.653Z,58.30
2018-12-01T08:56:45.482Z,60.30
2018-12-01T08:59:15.277Z,59.53
2018-12-01T09:01:44.985Z,58.30
2018-12-01T09:04:14.705Z,56.70
2018-12-01T09:06:44.584Z,56.87
2018-12-01T09:09:14.388Z,56.87
2018-12-01T09:11:44.956Z,53.40
2018-12-01T09:14:14.857Z,53.57
2018-12-01T09:16:44.701Z,55.40
2018-12-01T09:19:14.555Z,55.03
2018-12-01T09:21:44.292Z,55.33
2018-12-01T09:24:13.985Z,53.83
2018-12-01T09:26:43.819Z,53.27
2018-12-01T09:29:14.606Z,53.47
2018-12-01T09:31:44.392Z,53.93
2018-12-01T09:34:14.301Z,51.53
2018-12-01T09:36:44.090Z,51.63
2018-12-01T09:39:13.757Z,52.27
2018-12-01T09:41:43.548Z,52.00
2018-12-01T09:44:13.373Z,50.20
2018-12-01T09:46:43.161Z,51.20
2018-12-01T09:49:12.940Z,48.60
2018-12-01T09:51:42.657Z,48.53
2018-12-01T09:56:02.995Z,48.37
2018-12-01T09:58:32.770Z,49.87
2018-12-01T10:01:02.745Z,48.63
2018-12-01T10:03:32.333Z,45.73
2018-12-01T10:06:02.169Z,46.80
2018-12-01T10:08:31.877Z,46.00
2018-12-01T10:11:01.686Z,45.77
2018-12-01T10:13:31.503Z,45.43
2018-12-01T10:16:01.397Z,44.40
2018-12-01T10:18:31.193Z,44.33
2018-12-01T10:21:01.123Z,43.03
2018-12-01T10:23:30.921Z,43.30
2018-12-01T10:26:00.689Z,44.20
2018-12-01T10:28:30.439Z,42.63
2018-12-01T10:31:00.312Z,44.00
2018-12-01T10:33:30.032Z,45.13
2018-12-01T10:35:59.730Z,43.50
2018-12-01T10:38:29.448Z,45.33
2018-12-01T10:40:59.325Z,43.37
2018-12-01T10:43:29.036Z,40.63
2018-12-01T10:45:58.691Z,44.77
2018-12-01T10:48:28.401Z,44.30
2018-12-01T10:50:58.010Z,41.07
2018-12-01T10:53:27.703Z,41.70
2018-12-01T10:55:57.580Z,41.90
2018-12-01T10:58:27.389Z,42.07
2018-12-01T11:01:02.333Z,40.07
2018-12-01T11:03:37.084Z,40.30
2018-12-01T11:06:10.594Z,40.87
2018-12-01T11:08:40.292Z,41.53
2018-12-01T11:11:10.151Z,38.80
2018-12-01T11:13:40.658Z,40.40
2018-12-01T11:16:10.602Z,42.60
2018-12-01T11:18:40.356Z,41.13
2018-12-01T11:21:10.094Z,40.80
2018-12-01T11:23:39.761Z,38.03
2018-12-01T11:26:09.589Z,39.63
2018-12-01T11:28:39.149Z,40.23
2018-12-01T11:31:08.904Z,43.10
2018-12-01T11:33:38.496Z,41.37
2018-12-01T11:36:08.216Z,42.00
2018-12-01T11:38:37.882Z,42.80
2018-12-01T11:41:07.592Z,38.60
2018-12-01T11:43:37.321Z,40.57
2018-12-01T11:46:07.113Z,38.50
2018-12-01T11:48:36.788Z,38.03
2018-12-01T11:51:06.773Z,38.87
2018-12-01T11:53:36.511Z,37.70
2018-12-01T11:56:06.497Z,36.27
2018-12-01T11:58:36.641Z,37.67
2018-12-01T12:01:06.794Z,36.90
2018-12-01T12:03:36.508Z,37.83
2018-12-01T12:06:06.418Z,37.10
2018-12-01T12:08:36.490Z,35.57
2018-12-01T12:11:06.205Z,36.50
2018-12-01T12:13:35.889Z,35.50
2018-12-01T12:16:06.045Z,35.03
2018-12-01T12:18:35.897Z,34.97
2018-12-01T12:21:05.806Z,36.03
2018-12-01T12:23:35.569Z,34.90
2018-12-01T12:26:05.490Z,34.73
2018-12-01T12:28:35.166Z,34.37
2018-12-01T12:31:04.981Z,34.90
2018-12-01T12:33:34.692Z,34.13
2018-12-01T12:36:04.294Z,33.90
2018-12-01T12:38:34.025Z,34.43
2018-12-01T12:41:03.783Z,32.03
2018-12-01T12:43:33.580Z,33.30
2018-12-01T12:46:03.373Z,31.97
2018-12-01T12:48:33.173Z,33.90
2018-12-01T12:51:02.961Z,32.60
2018-12-01T12:53:32.694Z,33.33
2018-12-01T12:56:02.549Z,31.40
2018-12-01T12:58:32.350Z,31.70
2018-12-01T13:01:02.070Z,31.53
2018-12-01T13:03:31.879Z,31.83
2018-12-01T13:06:01.697Z,31.37
2018-12-01T13:08:31.464Z,31.40
2018-12-01T13:11:01.409Z,31.57
2018-12-01T13:13:31.184Z,30.37
2018-12-01T13:16:01.013Z,31.03
2018-12-01T13:18:30.809Z,31.40
2018-12-01T13:21:00.592Z,30.57
2018-12-01T13:23:30.307Z,30.30
2018-12-01T13:26:00.081Z,30.93
2018-12-01T13:28:29.893Z,30.77
2018-12-01T13:31:00.630Z,28.73
2018-12-01T13:33:30.436Z,29.70
2018-12-01T13:36:00.243Z,31.07
2018-12-01T13:38:30.022Z,31.47
2018-12-01T13:40:59.960Z,29.27
2018-12-01T13:43:29.712Z,29.20
2018-12-01T13:45:59.477Z,28.90
2018-12-01T13:48:29.229Z,29.53
2018-12-01T13:50:58.836Z,29.87
2018-12-01T13:53:28.575Z,27.90
2018-12-01T13:55:58.277Z,27.80
2018-12-01T13:58:28.108Z,28.20
2018-12-01T14:00:57.753Z,28.70
2018-12-01T14:03:27.505Z,27.67
2018-12-01T14:05:57.167Z,26.57
2018-12-01T14:08:26.864Z,28.47
2018-12-01T14:10:56.616Z,28.70
2018-12-01T14:13:26.377Z,28.07
2018-12-01T14:15:56.166Z,27.37
2018-12-01T14:18:25.982Z,27.80
2018-12-01T14:20:55.761Z,27.70
2018-12-01T14:23:25.489Z,28.03
2018-12-01T14:25:55.166Z,27.17
2018-12-01T14:28:24.787Z,28.43
2018-12-01T14:30:54.968Z,27.73
2018-12-01T14:33:24.845Z,26.57
2018-12-01T14:35:55.259Z,27.47
2018-12-01T14:38:24.849Z,26.77
2018-12-01T14:40:54.577Z,27.40
2018-12-01T14:43:24.358Z,26.83
2018-12-01T14:45:54.128Z,27.13
2018-12-01T14:48:24.097Z,27.60
2018-12-01T14:50:54.171Z,27.10
2018-12-01T14:53:23.999Z,25.77
2018-12-01T14:55:53.758Z,25.80
2018-12-01T14:58:23.593Z,27.20
2018-12-01T15:00:53.276Z,25.87
2018-12-01T15:03:23.114Z,25.03
2018-12-01T15:05:52.874Z,26.00
2018-12-01T15:08:22.602Z,25.20
2018-12-01T15:10:52.457Z,26.30
2018-12-01T15:13:22.169Z,24.87
2018-12-01T15:15:51.985Z,26.30
2018-12-01T15:18:21.792Z,26.97
2018-12-01T15:20:51.598Z,24.67
2018-12-01T15:23:21.291Z,25.60
2018-12-01T15:25:51.025Z,25.43
2018-12-01T15:28:20.883Z,26.30
2018-12-01T15:30:50.669Z,26.27
2018-12-01T15:33:20.416Z,24.90
2018-12-01T15:35:50.128Z,24.57
2018-12-01T15:38:19.964Z,25.73
2018-12-01T15:40:51.420Z,24.43
2018-12-01T15:43:21.170Z,26.40
2018-12-01T15:45:50.876Z,25.70
2018-12-01T15:48:20.605Z,25.17
2018-12-01T15:50:50.295Z,25.07
2018-12-01T15:53:20.024Z,25.00
2018-12-01T15:55:49.877Z,25.13
2018-12-01T15:58:19.594Z,25.07
2018-12-01T16:00:49.359Z,24.27
2018-12-01T16:03:19.212Z,24.73
2018-12-01T16:05:48.921Z,26.40
2018-12-01T16:08:18.708Z,24.93
2018-12-01T16:10:48.540Z,24.80
2018-12-01T16:13:19.960Z,25.97
2018-12-01T16:16:09.525Z,24.87
2018-12-01T16:18:39.274Z,25.67
2018-12-01T16:21:08.996Z,23.33
2018-12-01T16:23:38.621Z,25.03
2018-12-01T16:26:08.365Z,25.97
2018-12-01T16:28:38.108Z,25.13
2018-12-01T16:31:07.853Z,24.53
2018-12-01T16:33:37.535Z,24.97
2018-12-01T16:36:07.648Z,24.93
2018-12-01T16:38:37.657Z,24.50
2018-12-01T16:41:15.322Z,24.63
2018-12-01T16:43:45.162Z,25.97
2018-12-01T16:46:14.841Z,23.40
2018-12-01T16:48:44.686Z,25.67
2018-12-01T16:51:14.468Z,25.37
2018-12-01T16:53:44.297Z,23.07
2018-12-01T16:56:14.057Z,26.27
2018-12-01T16:58:43.790Z,23.30
2018-12-01T17:01:13.610Z,24.23
2018-12-01T17:03:43.433Z,24.77
2018-12-01T17:06:16.110Z,22.10
2018-12-01T17:08:45.905Z,25.00
2018-12-01T17:11:15.697Z,24.67
2018-12-01T17:13:45.575Z,23.40
2018-12-01T17:16:15.357Z,25.17
2018-12-01T17:18:45.296Z,24.50
2018-12-01T17:21:15.120Z,24.60
2018-12-01T17:23:44.880Z,25.13
2018-12-01T17:26:14.697Z,23.93
2018-12-01T17:28:44.473Z,23.13
2018-12-01T17:31:14.176Z,24.23
2018-12-01T17:33:44.688Z,23.57
2018-12-01T17:36:14.449Z,24.93
2018-12-01T17:38:44.193Z,22.57
2018-12-01T17:41:17.897Z,22.80
2018-12-01T17:43:51.292Z,23.63
2018-12-01T17:46:21.405Z,23.93
2018-12-01T17:48:51.415Z,23.03
2018-12-01T17:51:21.177Z,23.73
2018-12-01T17:53:52.837Z,23.13
2018-12-01T17:56:22.577Z,25.03
2018-12-01T17:58:52.410Z,23.43
2018-12-01T18:01:22.226Z,25.13
2018-12-01T18:03:52.041Z,24.37
2018-12-01T18:06:21.825Z,24.03
2018-12-01T18:08:51.662Z,23.17
2018-12-01T18:11:21.449Z,24.33
2018-12-01T18:13:51.277Z,23.70
2018-12-01T18:16:20.929Z,23.17
2018-12-01T18:18:50.653Z,24.10
2018-12-01T18:21:20.417Z,23.17
2018-12-01T18:23:50.228Z,23.77
2018-12-01T18:26:19.937Z,23.17
2018-12-01T18:28:50.882Z,24.23
2018-12-01T18:31:23.245Z,23.00
2018-12-01T18:34:05.850Z,23.40
2018-12-01T18:36:35.736Z,22.47
2018-12-01T18:39:08.752Z,23.70
2018-12-01T18:41:38.369Z,22.73
2018-12-01T18:44:08.125Z,23.63
2018-12-01T18:46:37.981Z,22.37
2018-12-01T18:49:07.789Z,22.10
2018-12-01T18:51:37.529Z,22.57
2018-12-01T18:54:07.374Z,24.27
2018-12-01T18:56:37.209Z,22.70
2018-12-01T18:59:07.300Z,22.17
2018-12-01T19:01:37.113Z,22.60
2018-12-01T19:04:06.897Z,23.43
2018-12-01T19:06:36.609Z,23.80
2018-12-01T19:09:08.015Z,23.77
2018-12-01T19:11:37.789Z,22.40
2018-12-01T19:14:07.846Z,21.33
2018-12-01T19:16:37.655Z,23.13
2018-12-01T19:19:07.437Z,22.57
2018-12-01T19:21:37.269Z,21.90
2018-12-01T19:24:06.986Z,23.87
2018-12-01T19:26:36.768Z,22.97
2018-12-01T19:29:07.228Z,23.00
2018-12-01T19:31:36.969Z,22.73
2018-12-01T19:34:07.256Z,24.07
2018-12-01T19:36:36.888Z,21.47
2018-12-01T19:39:08.242Z,22.77
2018-12-01T19:41:37.965Z,22.27
2018-12-01T19:44:08.294Z,22.60
2018-12-01T19:46:37.975Z,23.53
2018-12-01T19:49:07.833Z,22.13
2018-12-01T19:51:37.620Z,21.50
2018-12-01T19:54:07.716Z,23.30
2018-12-01T19:56:37.958Z,21.20
2018-12-01T19:59:06.595Z,23.70
2018-12-01T20:01:35.120Z,23.30
2018-12-01T20:04:04.683Z,22.47
2018-12-01T20:06:34.505Z,21.90
2018-12-01T20:09:04.465Z,23.30
2018-12-01T20:11:34.228Z,22.57
2018-12-01T20:14:04.749Z,23.57
2018-12-01T20:16:37.767Z,23.23
2018-12-01T20:19:08.091Z,22.07
2018-12-01T20:21:37.831Z,22.27
2018-12-01T20:24:08.405Z,22.83
2018-12-01T20:26:39.089Z,21.93
2018-12-01T20:29:08.942Z,21.60
2018-12-01T20:31:38.659Z,21.47
2018-12-01T20:34:08.671Z,21.40
2018-12-01T20:36:45.442Z,23.27
2018-12-01T20:39:18.393Z,23.33
2018-12-01T20:41:48.182Z,22.53
2018-12-01T20:44:17.920Z,21.17
2018-12-01T20:46:47.519Z,21.83
2018-12-01T20:49:17.321Z,22.23
2018-12-01T20:51:46.924Z,23.07
2018-12-01T20:54:27.281Z,22.27
2018-12-01T20:57:00.865Z,23.37
2018-12-01T20:59:30.890Z,23.77
2018-12-01T21:02:00.933Z,22.20
2018-12-01T21:04:30.741Z,21.57
2018-12-01T21:07:01.376Z,23.00
2018-12-01T21:09:32.139Z,21.67
2018-12-01T21:12:02.300Z,22.87
2018-12-01T21:14:32.076Z,21.73
2018-12-01T21:17:01.886Z,22.33
2018-12-01T21:19:31.737Z,23.03
2018-12-01T21:22:01.433Z,23.17
2018-12-01T21:24:31.200Z,22.63
2018-12-01T21:27:01.021Z,21.60
2018-12-01T21:29:30.772Z,24.13
2018-12-01T21:32:00.510Z,23.80
2018-12-01T21:34:30.253Z,22.80
2018-12-01T21:37:00.063Z,20.93
2018-12-01T21:39:29.873Z,22.43
2018-12-01T21:41:59.573Z,23.27
2018-12-01T21:44:29.397Z,23.93
2018-12-01T21:46:59.099Z,22.93
2018-12-01T21:49:28.886Z,50.13
2018-12-01T21:51:58.617Z,63.23
2018-12-01T21:54:28.432Z,52.97
2018-12-01T21:56:58.221Z,118.87
2018-12-01T21:59:27.958Z,88.87
2018-12-01T22:01:57.665Z,78.43
2018-12-01T22:04:27.476Z,69.87
2018-12-01T22:06:57.262Z,70.73
2018-12-01T22:09:27.087Z,68.43
2018-12-01T22:11:56.868Z,67.73
2018-12-01T22:14:26.704Z,95.73
2018-12-01T22:16:56.705Z,103.10
2018-12-01T22:19:26.539Z,89.57
2018-12-01T22:21:56.322Z,88.00
2018-12-01T22:24:26.159Z,89.83
2018-12-01T22:26:55.948Z,85.83
2018-12-01T22:29:25.817Z,80.03
2018-12-01T22:31:55.674Z,71.67
2018-12-01T22:34:26.593Z,80.40
2018-12-01T22:36:56.329Z,133.67
2018-12-01T22:39:25.229Z,101.97
2018-12-01T22:41:55.115Z,102.70
2018-12-01T22:44:24.797Z,91.97
2018-12-01T22:46:54.641Z,93.07
2018-12-01T22:49:24.421Z,86.60
2018-12-01T22:51:53.988Z,83.40
2018-12-01T22:54:23.761Z,84.57
2018-12-01T22:56:53.433Z,77.70
2018-12-01T22:59:23.070Z,77.47
2018-12-01T23:01:53.369Z,72.50
2018-12-01T23:04:23.077Z,71.73
2018-12-01T23:06:52.830Z,71.27
2018-12-01T23:09:22.663Z,68.57
2018-12-01T23:11:52.426Z,68.40
2018-12-01T23:14:22.218Z,69.20
2018-12-01T23:16:51.992Z,63.70
2018-12-01T23:19:21.805Z,60.80
2018-12-01T23:21:51.471Z,64.47
2018-12-01T23:24:21.306Z,94.87
2018-12-01T23:26:51.030Z,121.73
2018-12-01T23:29:20.905Z,118.80
2018-12-01T23:31:50.652Z,87.83
2018-12-01T23:34:20.365Z,84.30
2018-12-01T23:36:50.172Z,86.33
2018-12-01T23:39:19.885Z,79.23
2018-12-01T23:41:49.662Z,87.50
2018-12-01T23:44:32.202Z,79.93
2018-12-01T23:47:01.945Z,78.03
2018-12-01T23:49:31.649Z,75.93
2018-12-01T23:52:01.468Z,75.40
2018-12-01T23:54:31.244Z,71.53
2018-12-01T23:57:01.040Z,76.00
2018-12-01T23:59:30.665Z,71.80
